Asterion — FICK — position and weather

sailwx.info

Track history (hours):
 
Tides and Currents Weather Stations Pressure Air Temp Water Temp Dewpoint Dewpoint Depression Visibility Wind Speed Wind Dir Waves Ship Positions

Asterion

Last reported at 2014-Sep-23 17:33 UTC. Time now 2014-Sep-24 02:22 UTC.
Position N 37°15' E 023°43'.

Length 184 m; draft 7.2 m.

Type: Tanker. MMSI: 226000000.

Date/timePositionNaut miles runAvg speedWind from/ knotsBaromVisibWave heightAir tempDewpointWater temp
2014-Sep-23 17:33N 37°15' E 023°43'9 6.7
2014-Sep-23 16:13N 37°22' E 023°51'1 1.3
2014-Sep-23 15:22N 37°22' E 023°49'1 1.4
2014-Sep-23 14:21N 37°21' E 023°48'2 1.7
2014-Sep-23 13:09N 37°19' E 023°46'1 2.0
2014-Sep-23 12:33N 37°18' E 023°46'3 2.0
2014-Sep-23 11:03N 37°15' E 023°44'1 1.2
2014-Sep-23 10:33N 37°15' E 023°44'1110.4
2014-Sep-23 09:33N 37°05' E 023°39'1313.0
2014-Sep-23 08:33N 36°53' E 023°34'1313.1
2014-Sep-23 07:33N 36°40' E 023°29'1313.2
2014-Sep-23 06:33N 36°28' E 023°24'1313.4
2014-Sep-23 05:33N 36°15' E 023°19'1312.8
2014-Sep-23 04:33N 36°04' E 023°10'120557.1
2014-Sep-22 07:27N 48°56' E 002°14'982140.8
2014-Sep-22 00:28N 35°55' E 015°40'1112.6
2014-Sep-21 23:34N 35°54' E 015°26'1312.6
2014-Sep-21 22:34N 35°52' E 015°10'1312.9
2014-Sep-21 21:33N 35°52' E 014°55'8 8.0
2014-Sep-21 20:33N 35°54' E 014°45'0 0.0
2014-Sep-21 19:33N 35°54' E 014°45'0 0.0
2014-Sep-21 18:33N 35°54' E 014°45'1 1.1
2014-Sep-21 17:33N 35°53' E 014°45'1010.3
2014-Sep-21 16:33N 35°49' E 014°33'1 0.4
2014-Sep-21 14:33N 35°50' E 014°33'0 0.0
2014-Sep-21 12:06N 35°50' E 014°33'0 0.0
2014-Sep-21 11:30N 35°50' E 014°33'0 0.0
2014-Sep-21 10:33N 35°50' E 014°33'0 0.0
2014-Sep-21 09:33N 35°50' E 014°33'0 0.0
2014-Sep-21 08:30N 35°50' E 014°33'0 0.0
2014-Sep-21 07:33N 35°50' E 014°33'0 0.0
2014-Sep-21 06:30N 35°50' E 014°33'0 0.0
2014-Sep-21 05:30N 35°50' E 014°33'0 0.0
2014-Sep-21 04:30N 35°50' E 014°33'0 0.0
2014-Sep-21 03:33N 35°50' E 014°33'0 0.0
2014-Sep-21 02:15N 35°50' E 014°33'0 0.0
2014-Sep-21 01:33N 35°50' E 014°33'0 0.0
2014-Sep-21 00:21N 35°50' E 014°33'0 0.0
2014-Sep-20 23:33N 35°50' E 014°33'0 0.0
2014-Sep-20 20:27N 35°50' E 014°33'0 0.0
2014-Sep-20 14:12N 35°50' E 014°33'0 0.0
2014-Sep-20 11:15N 35°50' E 014°33'0 0.0
2014-Sep-20 10:30N 35°50' E 014°33'0 0.0
2014-Sep-20 09:33N 35°50' E 014°33'3 3.1
2014-Sep-20 08:33N 35°48' E 014°36'7 7.3
2014-Sep-20 07:34N 35°54' E 014°31'1 0.1
2014-Sep-19 08:05N 35°53' E 014°30'1 2.8
2014-Sep-19 07:33N 35°54' E 014°31'6 5.9
2014-Sep-19 06:32N 35°60' E 014°32'1212.5
2014-Sep-19 05:33N 36°06' E 014°19'7912.5
2014-Sep-18 23:15N 36°41' E 012°51'912.4
2014-Sep-18 22:33N 36°45' E 012°42'1212.1
2014-Sep-18 21:33N 36°51' E 012°29'1212.3
2014-Sep-18 20:33N 36°56' E 012°15'1312.2
2014-Sep-18 19:30N 37°02' E 012°00'2812.3
2014-Sep-18 17:12N 37°15' E 011°29'812.4
2014-Sep-18 16:34N 37°19' E 011°20'1212.4
2014-Sep-18 15:33N 37°24' E 011°06'2412.1
2014-Sep-18 13:33N 37°29' E 010°36'1211.8
2014-Sep-18 12:33N 37°32' E 010°22'1211.8
2014-Sep-18 11:33N 37°33' E 010°07'1211.9
2014-Sep-18 10:32N 37°31' E 009°51'1212.2
2014-Sep-18 09:32N 37°29' E 009°37'1212.2
2014-Sep-18 08:33N 37°26' E 009°22'1212.0
2014-Sep-18 07:33N 37°23' E 009°07'1312.8
2014-Sep-18 06:33N 37°20' E 008°52'2512.3
2014-Sep-18 04:33N 37°17' E 008°21'2512.4
2014-Sep-18 02:33N 37°18' E 007°49'1312.6
2014-Sep-18 01:29N 37°19' E 007°33'22112.8
2014-Sep-17 08:15N 37°10' E 002°56'912.4
2014-Sep-17 07:33N 37°09' E 002°45'1413.0
2014-Sep-17 06:29N 37°06' E 002°27'1213.2
2014-Sep-17 05:33N 37°04' E 002°12'1313.4
2014-Sep-17 04:33N 37°01' E 001°56'1313.4
2014-Sep-17 03:33N 36°58' E 001°40'1513.6
2014-Sep-17 02:29N 36°55' E 001°22'1314.1
2014-Sep-17 01:33N 36°53' E 001°05'1413.9
2014-Sep-17 00:31N 36°50' E 000°48'1313.7
2014-Sep-16 23:32N 36°48' E 000°31'1413.8
2014-Sep-16 22:32N 36°43' E 000°15'1413.8
2014-Sep-16 21:31N 36°39' W 000°02'1313.2
2014-Sep-16 20:33N 36°37' W 000°17'1312.9
2014-Sep-16 19:33N 36°34' W 000°33'1312.9
2014-Sep-16 18:33N 36°32' W 000°49'24813.8
2014-Sep-16 00:33N 35°55' W 005°53'1414.5
2014-Sep-15 23:33N 35°55' W 006°10'  
Track history (hours):
 
Tides and Currents Weather Stations Pressure Air Temp Water Temp Dewpoint Dewpoint Depression Visibility Wind Speed Wind Dir Waves Ship Positions

Asterion

Last reported at 2014-Sep-23 17:33 UTC. Time now 2014-Sep-24 02:22 UTC.
Position N 37°15' E 023°43'.

Length 184 m; draft 7.2 m.

Type: Tanker. MMSI: 226000000.

Date/timePositionNaut miles runAvg speedWind from/ knotsBaromVisibWave heightAir tempDewpointWater temp
2014-Sep-23 17:33N 37°15' E 023°43'9 6.7
2014-Sep-23 16:13N 37°22' E 023°51'1 1.3
2014-Sep-23 15:22N 37°22' E 023°49'1 1.4
2014-Sep-23 14:21N 37°21' E 023°48'2 1.7
2014-Sep-23 13:09N 37°19' E 023°46'1 2.0
2014-Sep-23 12:33N 37°18' E 023°46'3 2.0
2014-Sep-23 11:03N 37°15' E 023°44'1 1.2
2014-Sep-23 10:33N 37°15' E 023°44'1110.4
2014-Sep-23 09:33N 37°05' E 023°39'1313.0
2014-Sep-23 08:33N 36°53' E 023°34'1313.1
2014-Sep-23 07:33N 36°40' E 023°29'1313.2
2014-Sep-23 06:33N 36°28' E 023°24'1313.4
2014-Sep-23 05:33N 36°15' E 023°19'1312.8
2014-Sep-23 04:33N 36°04' E 023°10'120557.1
2014-Sep-22 07:27N 48°56' E 002°14'982140.8
2014-Sep-22 00:28N 35°55' E 015°40'1112.6
2014-Sep-21 23:34N 35°54' E 015°26'1312.6
2014-Sep-21 22:34N 35°52' E 015°10'1312.9
2014-Sep-21 21:33N 35°52' E 014°55'8 8.0
2014-Sep-21 20:33N 35°54' E 014°45'0 0.0
2014-Sep-21 19:33N 35°54' E 014°45'0 0.0
2014-Sep-21 18:33N 35°54' E 014°45'1 1.1
2014-Sep-21 17:33N 35°53' E 014°45'1010.3
2014-Sep-21 16:33N 35°49' E 014°33'1 0.4
2014-Sep-21 14:33N 35°50' E 014°33'0 0.0
2014-Sep-21 12:06N 35°50' E 014°33'0 0.0
2014-Sep-21 11:30N 35°50' E 014°33'0 0.0
2014-Sep-21 10:33N 35°50' E 014°33'0 0.0
2014-Sep-21 09:33N 35°50' E 014°33'0 0.0
2014-Sep-21 08:30N 35°50' E 014°33'0 0.0
2014-Sep-21 07:33N 35°50' E 014°33'0 0.0
2014-Sep-21 06:30N 35°50' E 014°33'0 0.0
2014-Sep-21 05:30N 35°50' E 014°33'0 0.0
2014-Sep-21 04:30N 35°50' E 014°33'0 0.0
2014-Sep-21 03:33N 35°50' E 014°33'0 0.0
2014-Sep-21 02:15N 35°50' E 014°33'0 0.0
2014-Sep-21 01:33N 35°50' E 014°33'0 0.0
2014-Sep-21 00:21N 35°50' E 014°33'0 0.0
2014-Sep-20 23:33N 35°50' E 014°33'0 0.0
2014-Sep-20 20:27N 35°50' E 014°33'0 0.0
2014-Sep-20 14:12N 35°50' E 014°33'0 0.0
2014-Sep-20 11:15N 35°50' E 014°33'0 0.0
2014-Sep-20 10:30N 35°50' E 014°33'0 0.0
2014-Sep-20 09:33N 35°50' E 014°33'3 3.1
2014-Sep-20 08:33N 35°48' E 014°36'7 7.3
2014-Sep-20 07:34N 35°54' E 014°31'1 0.1
2014-Sep-19 08:05N 35°53' E 014°30'1 2.8
2014-Sep-19 07:33N 35°54' E 014°31'6 5.9
2014-Sep-19 06:32N 35°60' E 014°32'1212.5
2014-Sep-19 05:33N 36°06' E 014°19'7912.5
2014-Sep-18 23:15N 36°41' E 012°51'912.4
2014-Sep-18 22:33N 36°45' E 012°42'1212.1
2014-Sep-18 21:33N 36°51' E 012°29'1212.3
2014-Sep-18 20:33N 36°56' E 012°15'1312.2
2014-Sep-18 19:30N 37°02' E 012°00'2812.3
2014-Sep-18 17:12N 37°15' E 011°29'812.4
2014-Sep-18 16:34N 37°19' E 011°20'1212.4
2014-Sep-18 15:33N 37°24' E 011°06'2412.1
2014-Sep-18 13:33N 37°29' E 010°36'1211.8
2014-Sep-18 12:33N 37°32' E 010°22'1211.8
2014-Sep-18 11:33N 37°33' E 010°07'1211.9
2014-Sep-18 10:32N 37°31' E 009°51'1212.2
2014-Sep-18 09:32N 37°29' E 009°37'1212.2
2014-Sep-18 08:33N 37°26' E 009°22'1212.0
2014-Sep-18 07:33N 37°23' E 009°07'1312.8
2014-Sep-18 06:33N 37°20' E 008°52'2512.3
2014-Sep-18 04:33N 37°17' E 008°21'2512.4
2014-Sep-18 02:33N 37°18' E 007°49'1312.6
2014-Sep-18 01:29N 37°19' E 007°33'22112.8
2014-Sep-17 08:15N 37°10' E 002°56'912.4
2014-Sep-17 07:33N 37°09' E 002°45'1413.0
2014-Sep-17 06:29N 37°06' E 002°27'1213.2
2014-Sep-17 05:33N 37°04' E 002°12'1313.4
2014-Sep-17 04:33N 37°01' E 001°56'1313.4
2014-Sep-17 03:33N 36°58' E 001°40'1513.6
2014-Sep-17 02:29N 36°55' E 001°22'1314.1
2014-Sep-17 01:33N 36°53' E 001°05'1413.9
2014-Sep-17 00:31N 36°50' E 000°48'1313.7
2014-Sep-16 23:32N 36°48' E 000°31'1413.8
2014-Sep-16 22:32N 36°43' E 000°15'1413.8
2014-Sep-16 21:31N 36°39' W 000°02'1313.2
2014-Sep-16 20:33N 36°37' W 000°17'1312.9
2014-Sep-16 19:33N 36°34' W 000°33'1312.9
2014-Sep-16 18:33N 36°32' W 000°49'24813.8
2014-Sep-16 00:33N 35°55' W 005°53'1414.5
2014-Sep-15 23:33N 35°55' W 006°10'  

Dump ship's entire track history